Time;durP1;ratioP1;P1;durP2;ratioP2;P2;SDS_P1;SDS_P2;PMS_P1;PMS_P2;Temp;Humidity;BMP_temperature;BMP_pressure;BME280_temperature;BME280_humidity;BME280_pressure;Samples;Min_cycle;Max_cycle;Signal;HPM_P1;HPM_P2
2022/10/15 00:04:39;;;;;;;;;;;12.90;99.90;;;;;;12546686;28;20326;-36
2022/10/15 00:10:41;;;;;;;;;;;12.90;99.90;;;;;;12554267;28;20015;-36
2022/10/15 00:16:43;;;;;;;;;;;12.80;99.90;;;;;;12559582;28;20368;-37
2022/10/15 00:22:44;;;;;;;;;;;12.80;99.90;;;;;;12554377;28;19924;-36
2022/10/15 00:28:48;;;;;;;;;;;12.80;99.90;;;;;;12549445;28;19931;-37
2022/10/15 00:34:50;;;;;;;;;;;12.70;99.90;;;;;;12549865;28;19936;-37
2022/10/15 00:40:52;;;;;;;;;;;12.70;99.90;;;;;;12553500;28;19932;-37
2022/10/15 00:46:56;;;;;;;;;;;12.70;99.90;;;;;;12564842;28;20426;-36
2022/10/15 00:53:00;;;;;;;;;;;12.60;99.90;;;;;;12550938;28;19925;-36
2022/10/15 00:59:03;;;;;;;;;;;12.60;99.90;;;;;;12559033;28;20015;-36
2022/10/15 01:05:05;;;;;;;;;;;12.50;99.90;;;;;;12550987;28;19952;-37
2022/10/15 01:11:16;;;;;;;;;;;12.60;99.90;;;;;;12547882;28;19925;-39
2022/10/15 01:17:37;;;;;;;;;;;12.50;99.90;;;;;;12540879;28;19925;-37
2022/10/15 01:23:44;;;;;;;;;;;12.50;99.90;;;;;;12545100;28;19952;-37
2022/10/15 01:29:50;;;;;;;;;;;12.60;99.90;;;;;;12533853;28;19928;-36
2022/10/15 01:36:04;;;;;;;;;;;12.60;99.90;;;;;;12541636;28;19936;-37
2022/10/15 01:42:36;;;;;;;;;;;12.70;99.90;;;;;;12542441;28;20012;-36
2022/10/15 01:48:39;;;;;;;;;;;12.70;99.90;;;;;;12541535;28;20441;-36
2022/10/15 01:54:41;;;;;;;;;;;12.60;99.90;;;;;;12561146;28;20273;-37
2022/10/15 02:00:43;;;;;;;;;;;12.50;99.90;;;;;;12551525;28;19925;-37
2022/10/15 02:06:47;;;;;;;;;;;12.50;99.90;;;;;;12561342;28;19935;-37
2022/10/15 02:12:57;;;;;;;;;;;12.60;99.90;;;;;;12561156;28;19933;-36
2022/10/15 02:19:05;;;;;;;;;;;12.60;99.90;;;;;;12561555;28;19924;-38
2022/10/15 02:25:07;;;;;;;;;;;12.60;99.90;;;;;;12556142;28;20384;-36
2022/10/15 02:31:11;;;;;;;;;;;12.70;99.90;;;;;;12553768;28;20008;-36
2022/10/15 02:37:13;;;;;;;;;;;12.70;99.90;;;;;;12555092;28;19935;-37
2022/10/15 02:43:18;;;;;;;;;;;12.60;99.90;;;;;;12563055;28;19925;-37
2022/10/15 02:49:20;;;;;;;;;;;12.70;99.90;;;;;;12542936;28;19925;-37
2022/10/15 02:55:22;;;;;;;;;;;12.70;99.90;;;;;;12556507;28;19932;-37
2022/10/15 03:01:24;;;;;;;;;;;12.50;99.90;;;;;;12535852;28;20280;-37
2022/10/15 03:07:26;;;;;;;;;;;12.30;99.90;;;;;;12564749;28;19933;-36
2022/10/15 03:13:28;;;;;;;;;;;12.20;99.90;;;;;;12546034;28;20377;-37
2022/10/15 03:19:29;;;;;;;;;;;12.40;99.90;;;;;;12536979;28;20003;-37
2022/10/15 03:25:31;;;;;;;;;;;12.50;99.90;;;;;;12555387;28;19932;-36
2022/10/15 03:31:33;;;;;;;;;;;12.60;99.90;;;;;;12552707;28;20438;-37
2022/10/15 03:37:34;;;;;;;;;;;12.60;99.90;;;;;;12564047;28;20284;-37
2022/10/15 03:43:36;;;;;;;;;;;12.60;99.90;;;;;;12554021;28;20253;-37
2022/10/15 03:49:43;;;;;;;;;;;12.60;99.90;;;;;;12558411;28;20016;-37
2022/10/15 03:55:45;;;;;;;;;;;12.60;99.90;;;;;;12554279;28;20293;-37
2022/10/15 04:01:47;;;;;;;;;;;12.60;99.90;;;;;;12560282;28;19928;-36
2022/10/15 04:07:49;;;;;;;;;;;12.60;99.90;;;;;;12567734;28;19933;-37
2022/10/15 04:13:50;;;;;;;;;;;12.60;99.90;;;;;;12557898;28;19940;-37
2022/10/15 04:19:52;;;;;;;;;;;12.50;99.90;;;;;;12564891;28;20303;-36
2022/10/15 04:25:57;;;;;;;;;;;12.50;99.90;;;;;;12558622;28;19999;-37
2022/10/15 04:31:59;;;;;;;;;;;12.40;99.90;;;;;;12557094;28;19951;-37
2022/10/15 04:38:01;;;;;;;;;;;12.50;99.90;;;;;;12548691;28;19925;-37
2022/10/15 04:44:03;;;;;;;;;;;12.40;99.90;;;;;;12546252;28;19925;-38
2022/10/15 04:50:05;;;;;;;;;;;12.50;99.90;;;;;;12550386;28;19935;-37
2022/10/15 04:56:09;;;;;;;;;;;12.50;99.90;;;;;;12531802;28;19933;-37
2022/10/15 05:02:10;;;;;;;;;;;12.50;99.90;;;;;;12553430;28;19932;-37
2022/10/15 05:08:12;;;;;;;;;;;12.40;99.90;;;;;;12544693;28;19932;-36
2022/10/15 05:14:14;;;;;;;;;;;12.40;99.90;;;;;;12552279;28;19929;-36
2022/10/15 05:20:16;;;;;;;;;;;12.30;99.90;;;;;;12562473;28;19928;-37
2022/10/15 05:26:19;;;;;;;;;;;12.20;99.90;;;;;;12554697;28;19925;-37
2022/10/15 05:32:21;;;;;;;;;;;12.20;99.90;;;;;;12557178;28;19924;-37
2022/10/15 05:38:24;;;;;;;;;;;12.20;99.90;;;;;;12559001;28;19925;-37
2022/10/15 05:44:26;;;;;;;;;;;12.20;99.90;;;;;;12573300;28;19925;-36
2022/10/15 05:50:27;;;;;;;;;;;12.10;99.90;;;;;;12555419;28;19933;-37
2022/10/15 05:56:29;;;;;;;;;;;12.10;99.90;;;;;;12560501;28;19924;-36
2022/10/15 06:02:31;;;;;;;;;;;11.90;99.90;;;;;;12563662;28;19924;-36
2022/10/15 06:08:33;;;;;;;;;;;11.90;99.90;;;;;;12548894;28;19925;-37
2022/10/15 06:14:35;;;;;;;;;;;11.90;99.90;;;;;;12556742;28;20398;-39
2022/10/15 06:20:37;;;;;;;;;;;12.00;99.90;;;;;;12555483;28;19928;-37
2022/10/15 06:26:39;;;;;;;;;;;11.90;99.90;;;;;;12556547;28;20654;-37
2022/10/15 06:32:47;;;;;;;;;;;12.00;99.90;;;;;;12557459;28;20082;-37
2022/10/15 06:38:49;;;;;;;;;;;12.00;99.90;;;;;;12561166;28;19936;-37
2022/10/15 06:44:51;;;;;;;;;;;12.00;99.90;;;;;;12566704;28;20372;-36
2022/10/15 06:50:53;;;;;;;;;;;12.10;99.90;;;;;;12566923;28;19931;-36
2022/10/15 06:56:55;;;;;;;;;;;12.10;99.90;;;;;;12548980;28;20477;-37
2022/10/15 07:03:01;;;;;;;;;;;12.20;99.90;;;;;;12558287;28;19933;-37
2022/10/15 07:09:04;;;;;;;;;;;12.30;99.90;;;;;;12561984;28;19924;-37
2022/10/15 07:15:06;;;;;;;;;;;12.40;99.90;;;;;;12555111;28;20003;-37
2022/10/15 07:21:09;;;;;;;;;;;12.50;99.90;;;;;;12559149;28;19936;-36
2022/10/15 07:27:16;;;;;;;;;;;12.50;99.90;;;;;;12556392;28;20289;-38
2022/10/15 07:33:19;;;;;;;;;;;12.60;99.90;;;;;;12556268;28;19935;-37
2022/10/15 07:39:21;;;;;;;;;;;12.70;99.90;;;;;;12551863;28;19925;-37
2022/10/15 07:45:24;;;;;;;;;;;12.80;99.90;;;;;;12552122;28;19959;-37
2022/10/15 07:51:26;;;;;;;;;;;12.90;99.90;;;;;;12553797;28;19924;-37
2022/10/15 07:57:27;;;;;;;;;;;13.00;99.90;;;;;;12550561;28;19940;-37
2022/10/15 08:03:29;;;;;;;;;;;13.10;99.90;;;;;;12554141;28;20287;-36
2022/10/15 08:09:31;;;;;;;;;;;13.20;99.90;;;;;;12552586;28;19939;-36
2022/10/15 08:15:33;;;;;;;;;;;13.30;99.90;;;;;;12553188;28;20388;-37
2022/10/15 08:21:35;;;;;;;;;;;13.30;99.90;;;;;;12553517;28;19925;-37
2022/10/15 08:27:36;;;;;;;;;;;13.40;99.90;;;;;;12540397;28;19925;-38
2022/10/15 08:33:39;;;;;;;;;;;13.40;99.90;;;;;;12547331;28;19939;-36
2022/10/15 08:39:40;;;;;;;;;;;13.50;99.90;;;;;;12533312;28;19954;-37
2022/10/15 08:45:43;;;;;;;;;;;13.70;99.90;;;;;;12550961;28;19924;-37
2022/10/15 08:51:47;;;;;;;;;;;14.00;99.90;;;;;;12550237;28;19944;-37
2022/10/15 08:57:56;;;;;;;;;;;14.30;99.90;;;;;;12563781;28;20388;-37
2022/10/15 09:04:06;;;;;;;;;;;14.30;99.90;;;;;;12560768;28;19966;-36
2022/10/15 09:10:14;;;;;;;;;;;14.30;99.90;;;;;;12548982;28;20556;-38
2022/10/15 09:16:17;;;;;;;;;;;14.20;99.90;;;;;;12509517;28;19924;-37
2022/10/15 09:22:27;;;;;;;;;;;14.60;99.90;;;;;;12550204;28;19980;-37
2022/10/15 09:28:37;;;;;;;;;;;14.90;99.90;;;;;;12556775;28;20380;-36
2022/10/15 09:34:42;;;;;;;;;;;15.30;99.90;;;;;;12549727;28;19939;-37
2022/10/15 09:41:00;;;;;;;;;;;15.40;99.90;;;;;;12537094;28;19948;-37
2022/10/15 09:47:13;;;;;;;;;;;15.70;99.90;;;;;;12553346;28;20062;-37
2022/10/15 09:53:21;;;;;;;;;;;15.80;99.90;;;;;;12559879;28;19924;-37
2022/10/15 09:59:28;;;;;;;;;;;16.10;99.90;;;;;;12543899;28;19936;-38
2022/10/15 10:05:31;;;;;;;;;;;16.10;99.90;;;;;;12560740;28;19924;-37
2022/10/15 10:11:46;;;;;;;;;;;15.80;99.90;;;;;;12568659;28;19928;-38
2022/10/15 10:17:51;;;;;;;;;;;16.20;99.90;;;;;;12578753;28;20289;-36
2022/10/15 10:23:53;;;;;;;;;;;16.60;99.90;;;;;;12555221;28;20403;-36
2022/10/15 10:29:55;;;;;;;;;;;16.30;99.90;;;;;;12556299;28;19936;-37
2022/10/15 10:35:58;;;;;;;;;;;16.10;99.90;;;;;;12549836;28;19929;-38
2022/10/15 10:42:21;;;;;;;;;;;16.00;99.90;;;;;;12562842;28;19974;-37
2022/10/15 10:48:35;;;;;;;;;;;16.00;99.90;;;;;;12563988;28;20300;-37
2022/10/15 10:54:37;;;;;;;;;;;15.90;99.90;;;;;;12555559;28;20639;-37
2022/10/15 11:00:40;;;;;;;;;;;15.90;99.90;;;;;;12556528;28;19925;-37
2022/10/15 11:07:01;;;;;;;;;;;16.10;99.90;;;;;;12557681;28;19925;-36
2022/10/15 11:13:03;;;;;;;;;;;16.40;99.90;;;;;;12562701;28;19924;-37
2022/10/15 11:19:13;;;;;;;;;;;16.60;99.90;;;;;;12558946;28;19925;-38
2022/10/15 11:25:42;;;;;;;;;;;17.10;99.90;;;;;;12559336;28;19925;-38
2022/10/15 11:31:59;;;;;;;;;;;17.70;99.90;;;;;;12546143;28;19932;-37
2022/10/15 11:38:35;;;;;;;;;;;18.00;99.90;;;;;;12560951;28;19928;-37
2022/10/15 11:44:40;;;;;;;;;;;18.00;99.90;;;;;;12550709;28;20300;-37
2022/10/15 11:50:48;;;;;;;;;;;18.20;99.90;;;;;;12535285;28;19924;-37
2022/10/15 11:56:52;;;;;;;;;;;18.20;99.90;;;;;;12553402;28;19932;-36
2022/10/15 12:02:54;;;;;;;;;;;18.40;99.90;;;;;;12545672;28;20407;-37
2022/10/15 12:08:57;;;;;;;;;;;18.10;99.90;;;;;;12550019;28;20022;-36
2022/10/15 12:15:19;;;;;;;;;;;18.50;99.90;;;;;;12560646;28;20048;-37
2022/10/15 12:21:33;;;;;;;;;;;18.60;99.90;;;;;;12541882;28;19925;-37
2022/10/15 12:27:35;;;;;;;;;;;18.20;99.90;;;;;;12549207;28;19932;-36
2022/10/15 12:33:43;;;;;;;;;;;17.90;99.90;;;;;;12558674;28;19924;-37
2022/10/15 12:39:45;;;;;;;;;;;17.90;99.90;;;;;;12556782;28;19925;-36
2022/10/15 12:45:58;;;;;;;;;;;17.80;99.90;;;;;;12553256;28;19935;-37
2022/10/15 12:52:20;;;;;;;;;;;17.90;99.90;;;;;;12557610;28;19924;-36
2022/10/15 12:58:31;;;;;;;;;;;17.70;99.90;;;;;;12552368;28;20016;-36
2022/10/15 13:04:37;;;;;;;;;;;17.50;99.90;;;;;;12554025;28;19924;-37
2022/10/15 13:10:44;;;;;;;;;;;17.50;99.90;;;;;;12547548;28;20386;-37
2022/10/15 13:16:46;;;;;;;;;;;17.60;99.90;;;;;;12536135;28;19924;-37
2022/10/15 13:22:48;;;;;;;;;;;17.50;99.90;;;;;;12552335;28;19970;-37
2022/10/15 13:28:55;;;;;;;;;;;17.50;99.90;;;;;;12552725;28;20412;-37
2022/10/15 13:34:58;;;;;;;;;;;17.40;99.90;;;;;;12545712;28;19929;-37
2022/10/15 13:41:00;;;;;;;;;;;17.50;99.90;;;;;;12552904;28;19925;-37
2022/10/15 13:47:02;;;;;;;;;;;17.40;99.90;;;;;;12560950;28;20404;-36
2022/10/15 13:53:33;;;;;;;;;;;17.30;99.90;;;;;;12555987;28;20296;-37
2022/10/15 13:59:35;;;;;;;;;;;17.00;99.90;;;;;;12543843;28;19924;-36
2022/10/15 14:05:37;;;;;;;;;;;16.60;99.90;;;;;;12553992;28;20440;-37
2022/10/15 14:11:39;;;;;;;;;;;16.30;99.90;;;;;;12560812;28;19936;-37
2022/10/15 14:17:41;;;;;;;;;;;16.20;99.90;;;;;;12550809;28;19932;-37
2022/10/15 14:23:44;;;;;;;;;;;16.10;99.90;;;;;;12558303;28;19933;-37
2022/10/15 14:29:46;;;;;;;;;;;16.00;99.90;;;;;;12555097;28;19928;-37
2022/10/15 14:36:01;;;;;;;;;;;16.00;99.90;;;;;;12529854;28;19925;-38
2022/10/15 14:42:24;;;;;;;;;;;15.90;99.90;;;;;;12558249;28;19929;-37
2022/10/15 14:48:36;;;;;;;;;;;15.90;99.90;;;;;;12546999;28;19925;-37
2022/10/15 14:54:39;;;;;;;;;;;15.80;99.90;;;;;;12546013;28;19935;-36
2022/10/15 15:00:41;;;;;;;;;;;15.70;99.90;;;;;;12554696;28;19928;-36
2022/10/15 15:06:43;;;;;;;;;;;15.60;99.90;;;;;;12558450;28;19924;-38
2022/10/15 15:12:48;;;;;;;;;;;15.60;99.90;;;;;;12557407;28;19925;-37
2022/10/15 15:18:50;;;;;;;;;;;15.60;99.90;;;;;;12560997;28;19929;-37
2022/10/15 15:24:51;;;;;;;;;;;15.50;99.90;;;;;;12533616;28;19933;-37
2022/10/15 15:31:01;;;;;;;;;;;15.60;99.90;;;;;;12554275;28;19925;-36
2022/10/15 15:37:09;;;;;;;;;;;15.60;99.90;;;;;;12555108;28;19928;-38
2022/10/15 15:43:11;;;;;;;;;;;15.70;99.90;;;;;;12539410;28;19931;-37
2022/10/15 15:49:13;;;;;;;;;;;15.70;99.90;;;;;;12559485;28;19925;-37
2022/10/15 15:55:15;;;;;;;;;;;15.70;99.90;;;;;;12548403;28;19928;-37
2022/10/15 16:01:17;;;;;;;;;;;15.70;99.90;;;;;;12548669;28;20292;-38
2022/10/15 16:07:19;;;;;;;;;;;15.80;99.90;;;;;;12551148;28;19933;-37
2022/10/15 16:13:24;;;;;;;;;;;15.70;99.90;;;;;;12560937;28;19928;-37
2022/10/15 16:19:25;;;;;;;;;;;15.80;99.90;;;;;;12559150;28;19932;-36
2022/10/15 16:25:30;;;;;;;;;;;15.80;99.90;;;;;;12552616;28;19931;-36
2022/10/15 16:31:35;;;;;;;;;;;15.80;99.90;;;;;;12553485;28;19924;-36
2022/10/15 16:37:37;;;;;;;;;;;15.80;99.90;;;;;;12561645;28;19979;-37
2022/10/15 16:43:38;;;;;;;;;;;15.80;99.90;;;;;;12541524;28;19925;-38
2022/10/15 16:49:41;;;;;;;;;;;16.00;99.90;;;;;;12548219;28;20210;-37
2022/10/15 16:55:43;;;;;;;;;;;16.10;99.90;;;;;;12556746;28;19924;-37
2022/10/15 17:01:45;;;;;;;;;;;16.00;99.90;;;;;;12545033;28;20011;-36
2022/10/15 17:07:47;;;;;;;;;;;16.00;99.90;;;;;;12534860;28;19974;-36
2022/10/15 17:13:49;;;;;;;;;;;15.90;99.90;;;;;;12547190;28;19932;-36
2022/10/15 17:19:51;;;;;;;;;;;15.90;99.90;;;;;;12542366;28;19924;-36
2022/10/15 17:25:53;;;;;;;;;;;15.90;99.90;;;;;;12550700;28;19963;-36
2022/10/15 17:31:55;;;;;;;;;;;15.80;99.90;;;;;;12549480;28;19925;-36
2022/10/15 17:37:57;;;;;;;;;;;15.80;99.90;;;;;;12551455;28;19928;-36
2022/10/15 17:43:59;;;;;;;;;;;15.70;99.90;;;;;;12554962;28;19924;-37
2022/10/15 17:50:00;;;;;;;;;;;15.70;99.90;;;;;;12549453;28;19929;-37
2022/10/15 17:56:12;;;;;;;;;;;15.70;99.90;;;;;;12548375;28;19936;-36
2022/10/15 18:02:14;;;;;;;;;;;15.90;99.90;;;;;;12557263;28;19968;-36
2022/10/15 18:08:16;;;;;;;;;;;15.90;99.90;;;;;;12564090;28;19925;-36
2022/10/15 18:14:18;;;;;;;;;;;16.00;99.90;;;;;;12549443;28;19933;-36
2022/10/15 18:20:24;;;;;;;;;;;16.10;99.90;;;;;;12554001;28;19925;-37
2022/10/15 18:26:26;;;;;;;;;;;16.10;99.90;;;;;;12558435;28;19975;-36
2022/10/15 18:32:28;;;;;;;;;;;16.20;99.90;;;;;;12558471;28;19931;-37
2022/10/15 18:38:30;;;;;;;;;;;16.20;99.90;;;;;;12557281;28;20033;-37
2022/10/15 18:44:33;;;;;;;;;;;16.20;99.90;;;;;;12552621;28;19928;-36
2022/10/15 18:50:35;;;;;;;;;;;16.10;99.90;;;;;;12552540;28;19932;-36
2022/10/15 18:56:36;;;;;;;;;;;16.00;99.90;;;;;;12551930;28;19935;-37
2022/10/15 19:02:38;;;;;;;;;;;16.00;99.90;;;;;;12558733;28;19935;-36
2022/10/15 19:08:40;;;;;;;;;;;15.90;99.90;;;;;;12563224;28;19928;-37
2022/10/15 19:14:42;;;;;;;;;;;15.90;99.90;;;;;;12554047;28;19925;-37
2022/10/15 19:20:45;;;;;;;;;;;15.80;99.90;;;;;;12556667;28;19924;-36
2022/10/15 19:26:47;;;;;;;;;;;15.70;99.90;;;;;;12557105;28;19924;-36
2022/10/15 19:32:50;;;;;;;;;;;15.60;99.90;;;;;;12561504;28;19932;-36
2022/10/15 19:38:51;;;;;;;;;;;15.50;99.90;;;;;;12555287;28;20284;-36
2022/10/15 19:44:53;;;;;;;;;;;15.50;99.90;;;;;;12553758;28;20006;-36
2022/10/15 19:50:55;;;;;;;;;;;15.40;99.90;;;;;;12545835;28;19931;-37
2022/10/15 19:56:57;;;;;;;;;;;15.30;99.90;;;;;;12553802;28;19925;-38
2022/10/15 20:03:04;;;;;;;;;;;15.30;99.90;;;;;;12557253;28;19931;-36
2022/10/15 20:09:07;;;;;;;;;;;15.20;99.90;;;;;;12557997;28;19978;-37
2022/10/15 20:15:09;;;;;;;;;;;15.10;99.90;;;;;;12557766;28;19925;-37
2022/10/15 20:21:12;;;;;;;;;;;15.00;99.90;;;;;;12561816;28;19929;-37
2022/10/15 20:27:14;;;;;;;;;;;14.80;99.90;;;;;;12569768;28;19924;-36
2022/10/15 20:33:16;;;;;;;;;;;14.70;99.90;;;;;;12542386;28;20373;-36
2022/10/15 20:39:18;;;;;;;;;;;14.60;99.90;;;;;;12559743;28;19924;-37
2022/10/15 20:45:19;;;;;;;;;;;14.50;99.90;;;;;;12552273;28;19932;-36
2022/10/15 20:51:22;;;;;;;;;;;14.50;99.90;;;;;;12564410;28;19933;-36
2022/10/15 20:57:29;;;;;;;;;;;14.40;99.90;;;;;;12548038;28;19968;-36
2022/10/15 21:03:30;;;;;;;;;;;14.40;99.90;;;;;;12543674;28;19967;-36
2022/10/15 21:09:32;;;;;;;;;;;14.30;99.90;;;;;;12540990;28;20383;-36
2022/10/15 21:15:34;;;;;;;;;;;14.20;99.90;;;;;;12544720;28;20436;-36
2022/10/15 21:21:36;;;;;;;;;;;14.20;99.90;;;;;;12551370;28;20391;-37
2022/10/15 21:27:38;;;;;;;;;;;14.10;99.90;;;;;;12550392;28;20284;-36
2022/10/15 21:33:40;;;;;;;;;;;14.00;99.90;;;;;;12553072;28;19928;-37
2022/10/15 21:39:41;;;;;;;;;;;13.90;99.90;;;;;;12551535;28;19936;-37
2022/10/15 21:45:43;;;;;;;;;;;13.90;99.90;;;;;;12546008;28;19924;-36
2022/10/15 21:51:44;;;;;;;;;;;13.80;99.90;;;;;;12546102;28;20308;-37
2022/10/15 21:57:46;;;;;;;;;;;13.70;99.90;;;;;;12556212;28;19924;-37
2022/10/15 22:03:49;;;;;;;;;;;13.70;99.90;;;;;;12564698;28;19981;-37
2022/10/15 22:09:51;;;;;;;;;;;13.70;99.90;;;;;;12557371;28;20420;-37
2022/10/15 22:15:52;;;;;;;;;;;13.60;99.90;;;;;;12560268;28;19931;-36
2022/10/15 22:21:54;;;;;;;;;;;13.60;99.90;;;;;;12556554;28;19925;-36
2022/10/15 22:27:56;;;;;;;;;;;13.50;99.90;;;;;;12562667;28;19929;-36
2022/10/15 22:33:58;;;;;;;;;;;13.50;99.90;;;;;;12560497;28;20062;-37
2022/10/15 22:40:00;;;;;;;;;;;13.50;99.90;;;;;;12553955;28;19929;-36
2022/10/15 22:46:02;;;;;;;;;;;13.40;99.90;;;;;;12556849;28;20399;-36
2022/10/15 22:52:04;;;;;;;;;;;13.50;99.90;;;;;;12551958;28;19932;-36
2022/10/15 22:58:06;;;;;;;;;;;13.60;99.90;;;;;;12553233;28;19931;-36
2022/10/15 23:04:08;;;;;;;;;;;13.70;99.90;;;;;;12547620;28;19929;-36
2022/10/15 23:10:10;;;;;;;;;;;13.70;99.90;;;;;;12556837;28;19925;-36
2022/10/15 23:16:12;;;;;;;;;;;13.60;99.90;;;;;;12557052;28;19976;-37
2022/10/15 23:22:13;;;;;;;;;;;13.50;99.90;;;;;;12560290;28;19936;-36
2022/10/15 23:28:15;;;;;;;;;;;13.60;99.90;;;;;;12553248;28;19924;-36
2022/10/15 23:34:18;;;;;;;;;;;13.60;99.90;;;;;;12553447;28;19925;-36
2022/10/15 23:40:20;;;;;;;;;;;13.60;99.90;;;;;;12551866;28;19932;-36
2022/10/15 23:46:22;;;;;;;;;;;13.80;99.90;;;;;;12558073;28;19932;-36
2022/10/15 23:52:23;;;;;;;;;;;13.80;99.90;;;;;;12556575;28;20443;-36
2022/10/15 23:58:25;;;;;;;;;;;13.90;99.90;;;;;;12556644;28;19925;-36
